sensor_id;sensor_type;location;lat;lon;timestamp;temperature;humidity
19646;DHT22;9971;52.446;13.452;2023-05-28T00:02:00;14.60;99.90
19646;DHT22;9971;52.446;13.452;2023-05-28T00:07:03;14.50;99.90
19646;DHT22;9971;52.446;13.452;2023-05-28T00:12:05;14.30;99.90
19646;DHT22;9971;52.446;13.452;2023-05-28T00:17:07;14.10;99.90
19646;DHT22;9971;52.446;13.452;2023-05-28T00:22:10;14.00;99.90
19646;DHT22;9971;52.446;13.452;2023-05-28T00:27:12;13.90;99.90
19646;DHT22;9971;52.446;13.452;2023-05-28T00:32:14;13.90;99.90
19646;DHT22;9971;52.446;13.452;2023-05-28T00:37:17;13.70;99.90
19646;DHT22;9971;52.446;13.452;2023-05-28T00:42:19;13.70;99.90
19646;DHT22;9971;52.446;13.452;2023-05-28T00:47:21;13.60;99.90
19646;DHT22;9971;52.446;13.452;2023-05-28T00:52:23;13.60;99.90
19646;DHT22;9971;52.446;13.452;2023-05-28T00:57:25;13.60;99.90
19646;DHT22;9971;52.446;13.452;2023-05-28T01:02:28;13.50;99.90
19646;DHT22;9971;52.446;13.452;2023-05-28T01:07:30;13.40;99.90
19646;DHT22;9971;52.446;13.452;2023-05-28T01:12:32;13.40;99.90
19646;DHT22;9971;52.446;13.452;2023-05-28T01:17:34;13.30;99.90
19646;DHT22;9971;52.446;13.452;2023-05-28T01:22:37;13.20;99.90
19646;DHT22;9971;52.446;13.452;2023-05-28T01:27:39;13.20;99.90
19646;DHT22;9971;52.446;13.452;2023-05-28T01:32:41;13.10;99.90
19646;DHT22;9971;52.446;13.452;2023-05-28T01:37:46;13.00;99.90
19646;DHT22;9971;52.446;13.452;2023-05-28T01:42:46;12.90;99.90
19646;DHT22;9971;52.446;13.452;2023-05-28T01:47:48;12.80;99.90
19646;DHT22;9971;52.446;13.452;2023-05-28T01:52:50;12.70;99.90
19646;DHT22;9971;52.446;13.452;2023-05-28T01:57:53;12.70;99.90
19646;DHT22;9971;52.446;13.452;2023-05-28T02:02:55;12.70;99.90
19646;DHT22;9971;52.446;13.452;2023-05-28T02:07:58;12.70;99.90
19646;DHT22;9971;52.446;13.452;2023-05-28T02:13:00;12.70;99.90
19646;DHT22;9971;52.446;13.452;2023-05-28T02:18:03;12.60;99.90
19646;DHT22;9971;52.446;13.452;2023-05-28T02:23:05;12.60;99.90
19646;DHT22;9971;52.446;13.452;2023-05-28T02:28:08;12.60;99.90
19646;DHT22;9971;52.446;13.452;2023-05-28T02:33:10;12.50;99.90
19646;DHT22;9971;52.446;13.452;2023-05-28T02:38:12;12.50;99.90
19646;DHT22;9971;52.446;13.452;2023-05-28T02:43:15;12.40;99.90
19646;DHT22;9971;52.446;13.452;2023-05-28T02:48:17;12.30;99.90
19646;DHT22;9971;52.446;13.452;2023-05-28T02:53:20;12.30;99.90
19646;DHT22;9971;52.446;13.452;2023-05-28T02:58:22;12.10;99.90
19646;DHT22;9971;52.446;13.452;2023-05-28T03:03:24;12.10;99.90
19646;DHT22;9971;52.446;13.452;2023-05-28T03:08:26;12.10;99.90
19646;DHT22;9971;52.446;13.452;2023-05-28T03:13:29;12.10;99.90
19646;DHT22;9971;52.446;13.452;2023-05-28T03:18:31;12.10;99.90
19646;DHT22;9971;52.446;13.452;2023-05-28T03:23:33;12.10;99.90
19646;DHT22;9971;52.446;13.452;2023-05-28T03:28:36;12.10;99.90
19646;DHT22;9971;52.446;13.452;2023-05-28T03:33:38;12.00;99.90
19646;DHT22;9971;52.446;13.452;2023-05-28T03:38:41;12.00;99.90
19646;DHT22;9971;52.446;13.452;2023-05-28T03:43:43;12.00;99.90
19646;DHT22;9971;52.446;13.452;2023-05-28T03:48:46;12.00;99.90
19646;DHT22;9971;52.446;13.452;2023-05-28T03:53:49;12.00;99.90
19646;DHT22;9971;52.446;13.452;2023-05-28T03:58:50;12.10;99.90
19646;DHT22;9971;52.446;13.452;2023-05-28T04:03:54;12.20;99.90
19646;DHT22;9971;52.446;13.452;2023-05-28T04:08:55;12.30;99.90
19646;DHT22;9971;52.446;13.452;2023-05-28T04:13:58;12.30;99.90
19646;DHT22;9971;52.446;13.452;2023-05-28T04:19:00;12.40;99.90
19646;DHT22;9971;52.446;13.452;2023-05-28T04:24:03;12.50;99.90
19646;DHT22;9971;52.446;13.452;2023-05-28T04:29:05;12.50;99.90
19646;DHT22;9971;52.446;13.452;2023-05-28T04:34:07;12.60;99.90
19646;DHT22;9971;52.446;13.452;2023-05-28T04:39:10;12.80;99.90
19646;DHT22;9971;52.446;13.452;2023-05-28T04:44:12;12.90;99.90
19646;DHT22;9971;52.446;13.452;2023-05-28T04:49:15;13.10;99.90
19646;DHT22;9971;52.446;13.452;2023-05-28T04:54:17;13.10;99.90
19646;DHT22;9971;52.446;13.452;2023-05-28T04:59:19;13.30;99.90
19646;DHT22;9971;52.446;13.452;2023-05-28T05:04:22;13.50;99.90
19646;DHT22;9971;52.446;13.452;2023-05-28T05:09:24;13.60;99.90
19646;DHT22;9971;52.446;13.452;2023-05-28T05:14:26;13.70;99.90
19646;DHT22;9971;52.446;13.452;2023-05-28T05:19:29;14.00;99.90
19646;DHT22;9971;52.446;13.452;2023-05-28T05:24:31;14.10;99.90
19646;DHT22;9971;52.446;13.452;2023-05-28T05:29:34;14.30;99.90
19646;DHT22;9971;52.446;13.452;2023-05-28T05:34:36;14.40;99.90
19646;DHT22;9971;52.446;13.452;2023-05-28T05:39:39;14.50;99.90
19646;DHT22;9971;52.446;13.452;2023-05-28T05:44:41;14.80;99.90
19646;DHT22;9971;52.446;13.452;2023-05-28T05:49:44;14.90;99.90
19646;DHT22;9971;52.446;13.452;2023-05-28T05:54:46;15.10;99.90
19646;DHT22;9971;52.446;13.452;2023-05-28T05:59:49;15.30;99.90
19646;DHT22;9971;52.446;13.452;2023-05-28T06:04:51;15.50;99.90
19646;DHT22;9971;52.446;13.452;2023-05-28T06:09:54;15.70;99.90
19646;DHT22;9971;52.446;13.452;2023-05-28T06:14:56;15.90;99.90
19646;DHT22;9971;52.446;13.452;2023-05-28T06:19:59;16.00;99.90
19646;DHT22;9971;52.446;13.452;2023-05-28T06:25:01;16.20;99.90
19646;DHT22;9971;52.446;13.452;2023-05-28T06:30:03;16.50;99.90
19646;DHT22;9971;52.446;13.452;2023-05-28T06:35:05;16.70;99.90
19646;DHT22;9971;52.446;13.452;2023-05-28T06:40:09;16.90;99.90
19646;DHT22;9971;52.446;13.452;2023-05-28T06:45:11;17.10;99.90
19646;DHT22;9971;52.446;13.452;2023-05-28T06:50:13;17.30;99.90
19646;DHT22;9971;52.446;13.452;2023-05-28T06:55:15;17.40;99.90
19646;DHT22;9971;52.446;13.452;2023-05-28T07:00:18;17.70;99.90
19646;DHT22;9971;52.446;13.452;2023-05-28T07:05:20;17.90;99.90
19646;DHT22;9971;52.446;13.452;2023-05-28T07:10:23;18.10;99.90
19646;DHT22;9971;52.446;13.452;2023-05-28T07:15:25;18.30;99.90
19646;DHT22;9971;52.446;13.452;2023-05-28T07:20:28;18.50;99.90
19646;DHT22;9971;52.446;13.452;2023-05-28T07:25:30;18.60;99.40
19646;DHT22;9971;52.446;13.452;2023-05-28T07:30:32;18.80;95.90
19646;DHT22;9971;52.446;13.452;2023-05-28T07:35:35;18.90;94.60
19646;DHT22;9971;52.446;13.452;2023-05-28T07:40:37;19.00;93.60
19646;DHT22;9971;52.446;13.452;2023-05-28T07:45:39;19.20;91.90
19646;DHT22;9971;52.446;13.452;2023-05-28T07:50:42;19.40;91.30
19646;DHT22;9971;52.446;13.452;2023-05-28T07:55:44;19.70;85.90
19646;DHT22;9971;52.446;13.452;2023-05-28T08:00:46;19.90;84.50
19646;DHT22;9971;52.446;13.452;2023-05-28T08:05:48;20.20;83.80
19646;DHT22;9971;52.446;13.452;2023-05-28T08:10:51;20.40;81.00
19646;DHT22;9971;52.446;13.452;2023-05-28T08:15:53;20.60;76.80
19646;DHT22;9971;52.446;13.452;2023-05-28T08:20:55;20.80;77.50
19646;DHT22;9971;52.446;13.452;2023-05-28T08:25:58;21.00;73.40
19646;DHT22;9971;52.446;13.452;2023-05-28T08:31:00;21.20;72.50
19646;DHT22;9971;52.446;13.452;2023-05-28T08:36:03;21.30;70.70
19646;DHT22;9971;52.446;13.452;2023-05-28T08:41:05;21.40;70.20
19646;DHT22;9971;52.446;13.452;2023-05-28T08:46:08;21.70;71.10
19646;DHT22;9971;52.446;13.452;2023-05-28T08:51:10;21.70;68.90
19646;DHT22;9971;52.446;13.452;2023-05-28T08:56:12;21.90;65.90
19646;DHT22;9971;52.446;13.452;2023-05-28T09:01:14;22.00;66.00
19646;DHT22;9971;52.446;13.452;2023-05-28T09:06:16;22.30;69.40
19646;DHT22;9971;52.446;13.452;2023-05-28T09:11:19;22.60;68.00
19646;DHT22;9971;52.446;13.452;2023-05-28T09:16:21;22.70;63.90
19646;DHT22;9971;52.446;13.452;2023-05-28T09:21:23;22.70;64.20
19646;DHT22;9971;52.446;13.452;2023-05-28T09:26:30;22.90;63.90
19646;DHT22;9971;52.446;13.452;2023-05-28T09:31:33;23.00;65.40
19646;DHT22;9971;52.446;13.452;2023-05-28T09:36:37;23.30;62.50
19646;DHT22;9971;52.446;13.452;2023-05-28T09:41:40;23.60;62.90
19646;DHT22;9971;52.446;13.452;2023-05-28T09:46:45;23.80;60.20
19646;DHT22;9971;52.446;13.452;2023-05-28T09:51:46;23.90;59.00
19646;DHT22;9971;52.446;13.452;2023-05-28T09:56:49;23.70;58.90
19646;DHT22;9971;52.446;13.452;2023-05-28T10:02:00;24.00;58.30
19646;DHT22;9971;52.446;13.452;2023-05-28T10:07:03;24.20;59.10
19646;DHT22;9971;52.446;13.452;2023-05-28T10:12:10;24.50;58.30
19646;DHT22;9971;52.446;13.452;2023-05-28T10:17:13;24.70;57.80
19646;DHT22;9971;52.446;13.452;2023-05-28T10:22:28;25.20;56.30
19646;DHT22;9971;52.446;13.452;2023-05-28T10:27:34;25.00;56.20
19646;DHT22;9971;52.446;13.452;2023-05-28T10:32:41;25.20;58.00
19646;DHT22;9971;52.446;13.452;2023-05-28T10:38:04;25.50;55.70
19646;DHT22;9971;52.446;13.452;2023-05-28T10:48:29;25.80;55.10
19646;DHT22;9971;52.446;13.452;2023-05-28T10:53:30;26.10;53.90
19646;DHT22;9971;52.446;13.452;2023-05-28T10:58:53;26.30;53.70
19646;DHT22;9971;52.446;13.452;2023-05-28T11:04:10;26.30;52.80
19646;DHT22;9971;52.446;13.452;2023-05-28T11:09:17;26.10;51.70
19646;DHT22;9971;52.446;13.452;2023-05-28T11:14:20;26.50;51.10
19646;DHT22;9971;52.446;13.452;2023-05-28T11:19:22;26.50;49.80
19646;DHT22;9971;52.446;13.452;2023-05-28T11:24:25;27.00;51.40
19646;DHT22;9971;52.446;13.452;2023-05-28T11:29:29;27.40;50.10
19646;DHT22;9971;52.446;13.452;2023-05-28T11:34:31;27.30;50.00
19646;DHT22;9971;52.446;13.452;2023-05-28T11:39:34;27.10;49.20
19646;DHT22;9971;52.446;13.452;2023-05-28T11:44:36;27.60;51.10
19646;DHT22;9971;52.446;13.452;2023-05-28T11:49:39;28.00;49.60
19646;DHT22;9971;52.446;13.452;2023-05-28T11:54:43;28.10;47.20
19646;DHT22;9971;52.446;13.452;2023-05-28T11:59:52;27.70;47.90
19646;DHT22;9971;52.446;13.452;2023-05-28T12:04:53;27.80;47.00
19646;DHT22;9971;52.446;13.452;2023-05-28T12:10:05;27.80;46.50
19646;DHT22;9971;52.446;13.452;2023-05-28T12:15:07;27.80;46.50
19646;DHT22;9971;52.446;13.452;2023-05-28T12:20:28;27.90;46.30
19646;DHT22;9971;52.446;13.452;2023-05-28T12:25:45;28.00;46.50
19646;DHT22;9971;52.446;13.452;2023-05-28T12:30:50;28.40;45.60
19646;DHT22;9971;52.446;13.452;2023-05-28T12:35:52;28.40;44.90
19646;DHT22;9971;52.446;13.452;2023-05-28T12:40:55;28.30;46.10
19646;DHT22;9971;52.446;13.452;2023-05-28T12:45:57;28.50;46.10
19646;DHT22;9971;52.446;13.452;2023-05-28T12:51:00;28.70;46.00
19646;DHT22;9971;52.446;13.452;2023-05-28T12:56:02;29.20;45.10
19646;DHT22;9971;52.446;13.452;2023-05-28T13:01:05;29.00;44.90
19646;DHT22;9971;52.446;13.452;2023-05-28T13:06:08;29.30;45.60
19646;DHT22;9971;52.446;13.452;2023-05-28T13:11:12;29.30;44.30
19646;DHT22;9971;52.446;13.452;2023-05-28T13:16:15;29.00;43.80
19646;DHT22;9971;52.446;13.452;2023-05-28T13:21:17;29.00;43.90
19646;DHT22;9971;52.446;13.452;2023-05-28T13:26:21;29.20;44.60
19646;DHT22;9971;52.446;13.452;2023-05-28T13:31:23;29.20;43.30
19646;DHT22;9971;52.446;13.452;2023-05-28T13:36:25;29.30;44.20
19646;DHT22;9971;52.446;13.452;2023-05-28T13:41:27;29.00;43.20
19646;DHT22;9971;52.446;13.452;2023-05-28T13:46:30;29.20;43.60
19646;DHT22;9971;52.446;13.452;2023-05-28T13:51:32;29.20;42.70
19646;DHT22;9971;52.446;13.452;2023-05-28T13:56:38;29.10;43.20
19646;DHT22;9971;52.446;13.452;2023-05-28T14:01:44;29.20;43.40
19646;DHT22;9971;52.446;13.452;2023-05-28T14:06:50;29.70;43.00
19646;DHT22;9971;52.446;13.452;2023-05-28T14:11:55;29.70;42.30
19646;DHT22;9971;52.446;13.452;2023-05-28T14:16:59;29.80;42.00
19646;DHT22;9971;52.446;13.452;2023-05-28T14:38:05;29.50;42.40
19646;DHT22;9971;52.446;13.452;2023-05-28T14:43:09;29.30;42.90
19646;DHT22;9971;52.446;13.452;2023-05-28T14:48:11;29.60;41.80
19646;DHT22;9971;52.446;13.452;2023-05-28T14:53:16;29.50;42.50
19646;DHT22;9971;52.446;13.452;2023-05-28T14:58:19;29.60;41.70
19646;DHT22;9971;52.446;13.452;2023-05-28T15:03:27;29.80;42.30
19646;DHT22;9971;52.446;13.452;2023-05-28T15:08:36;29.80;41.90
19646;DHT22;9971;52.446;13.452;2023-05-28T15:13:45;29.90;41.40
19646;DHT22;9971;52.446;13.452;2023-05-28T15:18:55;30.10;40.50
19646;DHT22;9971;52.446;13.452;2023-05-28T15:24:16;30.40;40.80
19646;DHT22;9971;52.446;13.452;2023-05-28T15:45:37;30.70;40.00
19646;DHT22;9971;52.446;13.452;2023-05-28T15:50:42;30.30;40.90
19646;DHT22;9971;52.446;13.452;2023-05-28T15:55:47;30.10;40.10
19646;DHT22;9971;52.446;13.452;2023-05-28T16:00:52;30.10;41.40
19646;DHT22;9971;52.446;13.452;2023-05-28T16:06:02;30.00;40.70
19646;DHT22;9971;52.446;13.452;2023-05-28T16:11:16;30.00;42.50
19646;DHT22;9971;52.446;13.452;2023-05-28T16:32:33;29.90;41.80
19646;DHT22;9971;52.446;13.452;2023-05-28T16:37:36;29.10;41.80
19646;DHT22;9971;52.446;13.452;2023-05-28T16:42:38;28.40;43.30
19646;DHT22;9971;52.446;13.452;2023-05-28T16:47:42;28.60;43.40
19646;DHT22;9971;52.446;13.452;2023-05-28T16:52:44;28.70;42.40
19646;DHT22;9971;52.446;13.452;2023-05-28T16:57:47;28.20;43.50
19646;DHT22;9971;52.446;13.452;2023-05-28T17:02:49;28.00;45.00
19646;DHT22;9971;52.446;13.452;2023-05-28T17:07:52;27.80;44.90
19646;DHT22;9971;52.446;13.452;2023-05-28T17:12:54;27.40;45.20
19646;DHT22;9971;52.446;13.452;2023-05-28T17:17:57;27.20;45.40
19646;DHT22;9971;52.446;13.452;2023-05-28T17:22:58;27.10;45.50
19646;DHT22;9971;52.446;13.452;2023-05-28T17:28:00;26.80;46.00
19646;DHT22;9971;52.446;13.452;2023-05-28T17:33:03;27.00;45.60
19646;DHT22;9971;52.446;13.452;2023-05-28T17:38:07;27.00;46.30
19646;DHT22;9971;52.446;13.452;2023-05-28T17:43:09;27.00;46.20
19646;DHT22;9971;52.446;13.452;2023-05-28T17:48:12;26.90;46.40
19646;DHT22;9971;52.446;13.452;2023-05-28T17:53:15;26.80;47.10
19646;DHT22;9971;52.446;13.452;2023-05-28T17:58:21;26.80;47.00
19646;DHT22;9971;52.446;13.452;2023-05-28T18:03:22;26.70;46.60
19646;DHT22;9971;52.446;13.452;2023-05-28T18:08:25;26.40;47.50
19646;DHT22;9971;52.446;13.452;2023-05-28T18:13:27;26.00;47.80
19646;DHT22;9971;52.446;13.452;2023-05-28T18:18:30;25.60;48.40
19646;DHT22;9971;52.446;13.452;2023-05-28T18:23:32;25.50;48.70
19646;DHT22;9971;52.446;13.452;2023-05-28T18:28:34;25.40;49.10
19646;DHT22;9971;52.446;13.452;2023-05-28T18:33:36;25.20;49.30
19646;DHT22;9971;52.446;13.452;2023-05-28T18:38:39;24.90;49.70
19646;DHT22;9971;52.446;13.452;2023-05-28T18:43:41;24.50;51.20
19646;DHT22;9971;52.446;13.452;2023-05-28T18:48:44;24.10;51.70
19646;DHT22;9971;52.446;13.452;2023-05-28T18:53:46;23.80;52.40
19646;DHT22;9971;52.446;13.452;2023-05-28T18:58:50;23.50;53.30
19646;DHT22;9971;52.446;13.452;2023-05-28T19:03:51;23.20;53.60
19646;DHT22;9971;52.446;13.452;2023-05-28T19:08:53;23.00;55.00
19646;DHT22;9971;52.446;13.452;2023-05-28T19:13:56;22.70;56.60
19646;DHT22;9971;52.446;13.452;2023-05-28T19:18:58;22.30;58.70
19646;DHT22;9971;52.446;13.452;2023-05-28T19:24:01;22.10;60.00
19646;DHT22;9971;52.446;13.452;2023-05-28T19:29:03;21.80;61.40
19646;DHT22;9971;52.446;13.452;2023-05-28T19:34:07;21.50;61.80
19646;DHT22;9971;52.446;13.452;2023-05-28T19:39:10;21.20;62.60
19646;DHT22;9971;52.446;13.452;2023-05-28T19:44:13;21.00;63.20
19646;DHT22;9971;52.446;13.452;2023-05-28T19:49:16;20.80;64.60
19646;DHT22;9971;52.446;13.452;2023-05-28T19:54:19;20.60;65.80
19646;DHT22;9971;52.446;13.452;2023-05-28T19:59:22;20.30;67.10
19646;DHT22;9971;52.446;13.452;2023-05-28T20:04:24;20.10;68.40
19646;DHT22;9971;52.446;13.452;2023-05-28T20:09:27;19.90;69.20
19646;DHT22;9971;52.446;13.452;2023-05-28T20:14:30;19.70;71.00
19646;DHT22;9971;52.446;13.452;2023-05-28T20:19:33;19.60;72.00
19646;DHT22;9971;52.446;13.452;2023-05-28T20:24:35;19.40;73.10
19646;DHT22;9971;52.446;13.452;2023-05-28T20:29:37;19.30;73.40
19646;DHT22;9971;52.446;13.452;2023-05-28T20:34:40;19.10;72.40
19646;DHT22;9971;52.446;13.452;2023-05-28T20:39:42;19.00;72.10
19646;DHT22;9971;52.446;13.452;2023-05-28T20:44:44;18.90;72.00
19646;DHT22;9971;52.446;13.452;2023-05-28T20:49:47;19.10;73.70
19646;DHT22;9971;52.446;13.452;2023-05-28T20:54:50;19.10;76.70
19646;DHT22;9971;52.446;13.452;2023-05-28T20:59:53;19.00;79.70
19646;DHT22;9971;52.446;13.452;2023-05-28T21:04:56;19.00;84.50
19646;DHT22;9971;52.446;13.452;2023-05-28T21:09:58;19.00;88.20
19646;DHT22;9971;52.446;13.452;2023-05-28T21:15:01;18.90;91.40
19646;DHT22;9971;52.446;13.452;2023-05-28T21:20:04;18.80;92.30
19646;DHT22;9971;52.446;13.452;2023-05-28T21:25:09;18.70;93.40
19646;DHT22;9971;52.446;13.452;2023-05-28T21:30:11;18.80;94.00
19646;DHT22;9971;52.446;13.452;2023-05-28T21:35:14;18.80;95.70
19646;DHT22;9971;52.446;13.452;2023-05-28T21:40:17;18.70;96.10
19646;DHT22;9971;52.446;13.452;2023-05-28T21:45:19;18.60;97.00
19646;DHT22;9971;52.446;13.452;2023-05-28T21:50:20;18.50;97.50
19646;DHT22;9971;52.446;13.452;2023-05-28T21:55:23;18.50;98.00
19646;DHT22;9971;52.446;13.452;2023-05-28T22:00:25;18.30;99.50
19646;DHT22;9971;52.446;13.452;2023-05-28T22:05:28;18.30;99.50
19646;DHT22;9971;52.446;13.452;2023-05-28T22:10:36;18.10;99.90
19646;DHT22;9971;52.446;13.452;2023-05-28T22:15:38;18.10;99.90
19646;DHT22;9971;52.446;13.452;2023-05-28T22:20:43;18.00;99.90
19646;DHT22;9971;52.446;13.452;2023-05-28T22:25:46;17.90;99.90
19646;DHT22;9971;52.446;13.452;2023-05-28T22:30:48;17.90;99.90
19646;DHT22;9971;52.446;13.452;2023-05-28T22:35:51;17.70;99.90
19646;DHT22;9971;52.446;13.452;2023-05-28T22:40:53;17.70;99.90
19646;DHT22;9971;52.446;13.452;2023-05-28T22:45:55;17.60;99.90
19646;DHT22;9971;52.446;13.452;2023-05-28T22:56:00;17.50;99.90
19646;DHT22;9971;52.446;13.452;2023-05-28T23:01:02;17.80;99.90
19646;DHT22;9971;52.446;13.452;2023-05-28T23:06:05;17.80;99.90
19646;DHT22;9971;52.446;13.452;2023-05-28T23:11:08;17.60;99.90
19646;DHT22;9971;52.446;13.452;2023-05-28T23:16:10;17.50;99.90
19646;DHT22;9971;52.446;13.452;2023-05-28T23:21:13;17.30;99.90
19646;DHT22;9971;52.446;13.452;2023-05-28T23:26:16;17.30;99.90
19646;DHT22;9971;52.446;13.452;2023-05-28T23:31:19;17.10;99.90
19646;DHT22;9971;52.446;13.452;2023-05-28T23:36:21;17.00;99.90
19646;DHT22;9971;52.446;13.452;2023-05-28T23:41:23;16.90;99.90
19646;DHT22;9971;52.446;13.452;2023-05-28T23:46:26;16.80;99.90
19646;DHT22;9971;52.446;13.452;2023-05-28T23:51:29;16.70;99.90
19646;DHT22;9971;52.446;13.452;2023-05-28T23:56:30;16.60;99.90
